Terminal Aerodrome Forecast
Issued by NWS Tampa Bay Area, FL

Home | Current Version | Previous Version | Text Only | Print | Product List | Glossary On
Versions: 1 2 3 4 5 6 7 8 9 10 11 12 13 14 15 16 17 18 19 20 21 22 23 24 25 26
000
FTUS42 KTBW 220817 AAA
TAFTPA
TAF AMD
KTPA 220817Z 2208/2306 16008KT P6SM FEW005 BKN015 BKN080
     FM221300 18012G20KT P6SM SCT005 BKN025
     FM221600 20016G26KT P6SM VCTS SCT010CB BKN025
     FM221800 22020G30KT P6SM TSRA SCT015CB OVC025=

USA.gov is the U.S. government's official web portal to all federal, state and local government web resources and services.